Time;durP1;ratioP1;P1;durP2;ratioP2;P2;SDS_P1;SDS_P2;PMS_P1;PMS_P2;Temp;Humidity;BMP_temperature;BMP_pressure;BME280_temperature;BME280_humidity;BME280_pressure;Samples;Min_cycle;Max_cycle;Signal;HPM_P1;HPM_P2
2022/03/06 00:01:51;;;;;;;6.67;4.10;;;;;;;-0.34;60.03;99676.88;8342565;28;20118;-75
2022/03/06 00:05:52;;;;;;;7.97;4.07;;;;;;;-0.41;60.14;99677.41;8348131;28;20082;-75
2022/03/06 00:09:54;;;;;;;8.83;4.73;;;;;;;-0.49;60.90;99671.13;8350324;28;20084;-75
2022/03/06 00:13:55;;;;;;;8.17;5.33;;;;;;;-0.56;61.31;99676.72;8351349;28;20060;-75
2022/03/06 00:17:57;;;;;;;9.60;4.67;;;;;;;-0.64;61.54;99678.97;8327035;28;20533;-75
2022/03/06 00:21:59;;;;;;;11.07;5.28;;;;;;;-0.70;61.43;99683.78;8352534;28;20053;-75
2022/03/06 00:26:00;;;;;;;8.30;4.73;;;;;;;-0.73;61.93;99678.53;8332189;28;20056;-75
2022/03/06 00:30:04;;;;;;;10.47;4.57;;;;;;;-0.79;62.15;99683.38;8330402;28;20089;-75
2022/03/06 00:34:07;;;;;;;7.60;3.97;;;;;;;-0.85;62.54;99683.09;8682871;22;20316;-75
2022/03/06 00:38:08;;;;;;;7.03;4.20;;;;;;;-0.93;62.93;99682.72;8378312;28;20143;-75
2022/03/06 00:42:10;;;;;;;6.77;4.23;;;;;;;-0.97;63.13;99680.84;8357207;28;20091;-75
2022/03/06 00:46:12;;;;;;;6.68;3.67;;;;;;;-0.99;62.58;99685.00;8356323;28;20056;-75
2022/03/06 00:50:14;;;;;;;5.80;3.80;;;;;;;-1.03;62.81;99688.22;8360198;28;20409;-75
2022/03/06 00:54:15;;;;;;;7.80;3.90;;;;;;;-1.06;62.79;99692.31;8369601;28;20360;-75
2022/03/06 00:58:17;;;;;;;6.50;3.73;;;;;;;-1.12;62.14;99685.25;8368923;28;20054;-75
2022/03/06 01:02:19;;;;;;;5.20;3.75;;;;;;;-1.15;62.62;99690.19;8370220;28;20642;-75
2022/03/06 01:06:21;;;;;;;5.80;3.72;;;;;;;-1.19;63.92;99695.09;8363668;28;20052;-76
2022/03/06 01:10:23;;;;;;;6.23;3.83;;;;;;;-1.24;63.56;99693.22;8376529;28;20076;-75
2022/03/06 01:14:24;;;;;;;7.65;4.60;;;;;;;-1.27;64.46;99694.72;8376396;28;20060;-75
2022/03/06 01:18:26;;;;;;;7.27;4.70;;;;;;;-1.30;64.71;99694.56;8376604;28;20662;-76
2022/03/06 01:22:27;;;;;;;7.10;4.87;;;;;;;-1.38;65.32;99683.16;8376535;28;20056;-76
2022/03/06 01:26:29;;;;;;;7.00;5.10;;;;;;;-1.42;64.99;99688.91;8374522;28;20084;-75
2022/03/06 01:30:31;;;;;;;6.53;4.10;;;;;;;-1.46;66.37;99692.09;8370937;28;20048;-76
2022/03/06 01:34:32;;;;;;;7.03;4.50;;;;;;;-1.51;65.53;99702.06;8375615;28;20060;-76
2022/03/06 01:38:34;;;;;;;6.90;4.40;;;;;;;-1.55;66.64;99693.41;8375594;28;20140;-76
2022/03/06 01:42:42;;;;;;;10.53;4.60;;;;;;;-1.60;66.14;99686.38;8366371;28;20059;-76
2022/03/06 01:46:48;;;;;;;9.33;5.17;;;;;;;-1.67;66.37;99686.84;8372582;28;20049;-76
2022/03/06 01:50:50;;;;;;;7.27;4.07;;;;;;;-1.75;67.37;99683.94;8366613;28;20449;-76
2022/03/06 01:54:51;;;;;;;7.05;4.32;;;;;;;-1.87;67.75;99689.28;8377655;28;20413;-75
2022/03/06 01:58:54;;;;;;;5.67;4.27;;;;;;;-1.97;68.11;99686.25;8376903;28;20075;-76
2022/03/06 02:02:56;;;;;;;7.68;4.72;;;;;;;-1.98;68.34;99684.47;8370786;28;20544;-76
2022/03/06 02:06:59;;;;;;;5.97;4.00;;;;;;;-2.04;69.21;99681.63;8365416;28;20072;-76
2022/03/06 02:11:01;;;;;;;8.63;4.70;;;;;;;-2.09;69.68;99686.50;8376337;28;20060;-76
2022/03/06 02:15:05;;;;;;;5.57;3.73;;;;;;;-2.18;69.48;99686.00;8365344;28;20056;-76
2022/03/06 02:19:13;;;;;;;7.07;4.13;;;;;;;-2.21;70.22;99688.41;8372079;28;20071;-77
2022/03/06 02:23:15;;;;;;;5.87;4.00;;;;;;;-2.23;70.27;99688.31;8382907;28;20127;-76
2022/03/06 02:27:18;;;;;;;5.00;3.25;;;;;;;-2.29;70.55;99688.03;8369740;28;20048;-76
2022/03/06 02:31:19;;;;;;;9.77;4.75;;;;;;;-2.32;70.38;99684.47;8378864;28;20053;-76
2022/03/06 02:35:21;;;;;;;8.27;4.90;;;;;;;-2.35;70.77;99687.69;8370562;28;20642;-76
2022/03/06 02:39:26;;;;;;;6.80;4.77;;;;;;;-2.36;70.82;99680.88;8383090;28;20080;-76
2022/03/06 02:43:28;;;;;;;7.53;4.87;;;;;;;-2.39;71.20;99679.84;8382748;28;20320;-76
2022/03/06 02:47:29;;;;;;;8.30;4.70;;;;;;;-2.46;70.83;99677.00;8380105;28;20148;-76
2022/03/06 02:51:31;;;;;;;6.50;4.90;;;;;;;-2.50;71.09;99682.72;8371125;28;20606;-76
2022/03/06 02:55:32;;;;;;;6.90;4.63;;;;;;;-2.52;71.31;99681.75;8371287;28;20144;-76
2022/03/06 02:59:35;;;;;;;9.53;5.17;;;;;;;-2.53;70.95;99689.28;8371139;28;20044;-76
2022/03/06 03:03:39;;;;;;;;;;;;;;;-2.54;70.99;99685.88;8379860;28;20195;-76
2022/03/06 03:07:43;;;;;;;8.13;4.50;;;;;;;-2.60;71.36;99684.69;8391404;28;19936;-75
2022/03/06 03:11:44;;;;;;;6.17;4.47;;;;;;;-2.63;71.63;99685.41;8396596;28;20162;-75
2022/03/06 03:15:46;;;;;;;4.47;4.07;;;;;;;-2.65;71.50;99683.59;8368094;28;20060;-76
2022/03/06 03:19:47;;;;;;;7.33;4.40;;;;;;;-2.75;71.22;99694.91;8396078;28;20073;-75
2022/03/06 03:23:48;;;;;;;7.77;4.90;;;;;;;-2.78;71.60;99692.22;8382183;28;20432;-75
2022/03/06 03:27:50;;;;;;;9.50;4.73;;;;;;;-2.79;71.91;99695.56;8391362;28;20055;-75
2022/03/06 03:31:51;;;;;;;10.30;4.93;;;;;;;-2.81;72.03;99699.69;8381908;28;21057;-75
2022/03/06 03:35:54;;;;;;;5.75;3.95;;;;;;;-2.84;72.34;99702.06;8376549;28;20086;-75
2022/03/06 03:39:55;;;;;;;6.57;4.47;;;;;;;-2.90;72.41;99709.34;8384599;28;20044;-75
2022/03/06 03:43:57;;;;;;;7.13;4.10;;;;;;;-2.95;72.24;99701.50;8379669;28;20062;-75
2022/03/06 03:47:58;;;;;;;8.10;5.07;;;;;;;-2.94;72.90;99704.91;8369447;28;20610;-75
2022/03/06 03:52:00;;;;;;;8.83;5.40;;;;;;;-2.99;73.20;99709.75;8394949;28;20493;-75
2022/03/06 03:56:04;;;;;;;10.53;6.20;;;;;;;-3.05;73.57;99707.75;8384773;28;20144;-74
2022/03/06 04:00:07;;;;;;;8.93;5.23;;;;;;;-3.13;73.71;99710.66;8385437;28;20451;-74
2022/03/06 04:04:09;;;;;;;8.40;5.23;;;;;;;-3.15;74.25;99715.66;8382172;28;20147;-74
2022/03/06 04:08:11;;;;;;;11.93;5.88;;;;;;;-3.15;74.09;99722.41;8370729;28;20268;-74
2022/03/06 04:12:12;;;;;;;7.57;5.33;;;;;;;-3.18;73.93;99728.19;8379840;28;20044;-74
2022/03/06 04:16:14;;;;;;;10.83;6.27;;;;;;;-3.23;74.72;99731.22;8358357;28;20132;-75
2022/03/06 04:20:15;;;;;;;10.70;5.47;;;;;;;-3.29;74.88;99743.59;8370891;28;20127;-74
2022/03/06 04:24:17;;;;;;;8.30;5.43;;;;;;;-3.37;74.93;99731.38;8369532;28;20059;-74
2022/03/06 04:28:18;;;;;;;9.57;5.63;;;;;;;-3.42;74.96;99739.50;8381662;28;20045;-74
2022/03/06 04:32:20;;;;;;;10.37;5.53;;;;;;;-3.44;74.86;99738.53;8374831;28;20143;-74
2022/03/06 04:36:22;;;;;;;9.13;4.68;;;;;;;-3.47;75.21;99745.97;8377877;28;20053;-74
2022/03/06 04:40:24;;;;;;;11.43;5.57;;;;;;;-3.51;75.47;99754.22;8360965;28;20048;-73
2022/03/06 04:44:25;;;;;;;8.33;5.33;;;;;;;-3.59;75.60;99746.19;8377970;28;20301;-74
2022/03/06 04:48:27;;;;;;;6.43;4.10;;;;;;;-3.57;75.96;99751.34;8354107;28;20048;-74
2022/03/06 04:52:28;;;;;;;7.83;4.30;;;;;;;-3.60;75.96;99757.09;8385417;28;20148;-74
2022/03/06 04:56:30;;;;;;;6.93;4.23;;;;;;;-3.68;75.43;99756.66;8364891;28;20409;-74
2022/03/06 05:00:33;;;;;;;7.60;4.63;;;;;;;-3.72;75.97;99752.22;8343843;28;20132;-73
2022/03/06 05:04:35;;;;;;;8.87;4.43;;;;;;;-3.75;75.45;99758.78;8377165;28;20318;-74
2022/03/06 05:08:36;;;;;;;7.97;4.67;;;;;;;-3.78;75.81;99761.09;8374428;28;20161;-73
2022/03/06 05:12:40;;;;;;;6.43;4.60;;;;;;;-3.80;76.39;99765.22;8368259;28;20055;-74
2022/03/06 05:16:42;;;;;;;7.13;4.67;;;;;;;-3.82;76.33;99759.19;8368351;28;20060;-74
2022/03/06 05:20:44;;;;;;;7.45;4.60;;;;;;;-3.86;76.40;99759.81;8377220;28;20971;-74
2022/03/06 05:24:45;;;;;;;4.97;3.00;;;;;;;-3.94;76.31;99763.56;8377634;28;20055;-74
2022/03/06 05:28:47;;;;;;;8.10;4.43;;;;;;;-3.96;76.18;99766.00;8382090;28;20189;-74
2022/03/06 05:32:49;;;;;;;6.83;4.23;;;;;;;-3.97;76.12;99767.66;8378410;28;20063;-74
2022/03/06 05:36:51;;;;;;;4.75;3.08;;;;;;;-3.98;76.54;99781.13;8360584;28;20062;-74
2022/03/06 05:40:52;;;;;;;6.77;4.33;;;;;;;-4.00;76.62;99779.28;8388261;28;20056;-74
2022/03/06 05:44:54;;;;;;;5.70;4.30;;;;;;;-4.01;76.31;99775.88;8372056;28;20872;-74
2022/03/06 05:48:55;;;;;;;5.03;3.97;;;;;;;-3.94;76.97;99778.78;8384117;28;20047;-74
2022/03/06 05:52:57;;;;;;;8.73;3.97;;;;;;;-3.89;76.78;99788.41;8394392;28;20121;-74
2022/03/06 05:56:58;;;;;;;7.80;4.37;;;;;;;-3.83;77.21;99790.41;8391853;28;20060;-74
2022/03/06 06:01:01;;;;;;;4.13;2.97;;;;;;;-3.77;77.19;99793.31;8388884;28;20372;-74
2022/03/06 06:05:05;;;;;;;6.93;4.10;;;;;;;-3.69;77.44;99798.06;8394060;28;20048;-74
2022/03/06 06:09:06;;;;;;;6.97;4.17;;;;;;;-3.61;77.67;99803.56;8375580;28;20082;-75
2022/03/06 06:13:09;;;;;;;4.87;3.70;;;;;;;-3.54;77.55;99804.81;8392476;28;20056;-75
2022/03/06 06:17:10;;;;;;;5.68;3.70;;;;;;;-3.47;77.79;99805.22;8389892;28;20052;-75
2022/03/06 06:21:13;;;;;;;5.20;3.70;;;;;;;-3.36;77.59;99806.72;8371452;28;20083;-74
2022/03/06 06:25:15;;;;;;;8.03;4.20;;;;;;;-3.28;77.61;99806.28;8392421;28;20574;-75
2022/03/06 06:29:17;;;;;;;7.00;3.63;;;;;;;-3.16;77.75;99812.94;8374184;28;20126;-75
2022/03/06 06:33:19;;;;;;;5.30;3.60;;;;;;;-3.05;78.07;99811.00;8350439;28;1110750;-75
2022/03/06 06:37:20;;;;;;;6.50;3.70;;;;;;;-2.94;78.09;99816.66;8373504;28;20491;-75
2022/03/06 06:41:22;;;;;;;8.20;4.03;;;;;;;-2.79;77.69;99817.53;8377107;28;20191;-75
2022/03/06 06:45:23;;;;;;;7.00;4.33;;;;;;;-2.68;77.38;99825.75;8390302;28;20872;-75
2022/03/06 06:49:25;;;;;;;7.60;4.10;;;;;;;-2.59;77.68;99814.41;8393780;28;20059;-76
2022/03/06 06:53:26;;;;;;;9.17;4.33;;;;;;;-2.43;75.95;99823.72;8395102;28;20150;-76
2022/03/06 06:57:29;;;;;;;10.37;4.07;;;;;;;-2.31;77.04;99816.75;8376672;28;20127;-76
2022/03/06 07:01:30;;;;;;;8.52;4.35;;;;;;;-2.16;75.89;99824.31;8391768;28;20052;-76
2022/03/06 07:05:32;;;;;;;9.20;4.68;;;;;;;-2.02;75.86;99827.56;8374072;28;20142;-74
2022/03/06 07:09:34;;;;;;;8.43;5.07;;;;;;;-1.87;75.70;99825.84;8376308;28;20196;-76
2022/03/06 07:13:36;;;;;;;10.50;6.43;;;;;;;-1.67;75.91;99826.84;8373934;28;20351;-76
2022/03/06 07:17:37;;;;;;;8.97;5.40;;;;;;;-1.45;74.72;99826.25;8390627;28;20143;-74
2022/03/06 07:21:38;;;;;;;11.30;5.87;;;;;;;-1.25;74.37;99826.47;8374242;28;20076;-77
2022/03/06 07:25:41;;;;;;;10.60;6.93;;;;;;;-1.01;73.00;99825.91;8388798;28;20139;-75
2022/03/06 07:29:42;;;;;;;13.32;5.63;;;;;;;-0.74;71.52;99827.19;8381369;28;20059;-76
2022/03/06 07:33:44;;;;;;;13.17;7.07;;;;;;;-0.39;70.29;99828.84;8372408;28;20055;-77
2022/03/06 07:37:46;;;;;;;19.70;9.37;;;;;;;0.02;68.15;99829.84;8376973;28;20064;-74
2022/03/06 07:41:47;;;;;;;31.10;12.63;;;;;;;0.41;66.00;99828.16;8375881;28;20048;-74
2022/03/06 07:45:49;;;;;;;25.83;11.63;;;;;;;0.96;64.37;99838.13;8383171;28;20060;-73
2022/03/06 07:49:50;;;;;;;15.00;8.77;;;;;;;1.51;61.19;99845.44;8389878;28;20075;-77
2022/03/06 07:53:52;;;;;;;9.70;6.80;;;;;;;1.99;59.19;99833.63;8390285;28;20052;-72
2022/03/06 07:57:53;;;;;;;8.73;5.50;;;;;;;2.46;57.16;99831.88;8368696;28;20048;-75
2022/03/06 08:01:55;;;;;;;10.03;5.13;;;;;;;2.78;55.42;99834.66;8382254;28;20056;-73
2022/03/06 08:05:57;;;;;;;5.85;4.57;;;;;;;3.21;53.26;99837.81;8386490;28;20051;-73
2022/03/06 08:09:59;;;;;;;4.97;3.80;;;;;;;3.57;51.79;99840.66;8385630;28;20143;-73
2022/03/06 08:14:00;;;;;;;4.73;3.93;;;;;;;3.91;49.92;99845.09;8383728;28;20075;-75
2022/03/06 08:18:02;;;;;;;4.37;3.47;;;;;;;4.28;48.94;99845.28;8379348;28;20047;-75
2022/03/06 08:22:04;;;;;;;4.55;3.75;;;;;;;4.64;47.80;99855.69;8376508;28;20135;-75
2022/03/06 08:26:05;;;;;;;4.33;3.33;;;;;;;4.87;46.39;99849.47;8351411;28;20696;-75
2022/03/06 08:30:07;;;;;;;5.00;3.57;;;;;;;5.08;45.92;99856.88;8353850;28;20132;-73
2022/03/06 08:34:09;;;;;;;4.05;3.20;;;;;;;5.32;44.55;99862.59;8367177;28;20166;-73
2022/03/06 08:38:10;;;;;;;5.30;3.70;;;;;;;5.50;43.47;99859.59;8343265;28;20055;-75
2022/03/06 08:42:12;;;;;;;4.93;3.53;;;;;;;5.56;43.59;99866.56;8342291;28;20060;-73
2022/03/06 08:46:14;;;;;;;6.85;3.80;;;;;;;5.71;43.54;99857.50;8313349;28;20063;-73
2022/03/06 08:50:15;;;;;;;4.90;3.87;;;;;;;5.76;43.12;99858.50;8347009;28;20489;-73
2022/03/06 08:54:17;;;;;;;5.13;3.33;;;;;;;5.90;42.84;99863.09;8325143;28;20056;-72
2022/03/06 08:58:18;;;;;;;6.23;3.97;;;;;;;6.09;42.93;99862.66;8341054;28;20054;-75
2022/03/06 09:02:20;;;;;;;6.67;4.20;;;;;;;6.29;42.97;99863.09;8337272;28;20139;-75
2022/03/06 09:06:21;;;;;;;4.97;3.83;;;;;;;6.41;42.36;99857.28;8342713;28;20081;-75
2022/03/06 09:10:23;;;;;;;5.57;4.13;;;;;;;6.44;42.28;99852.19;8339377;28;20152;-75
2022/03/06 09:14:25;;;;;;;5.68;3.80;;;;;;;6.60;41.63;99860.25;8340900;28;20057;-75
2022/03/06 09:18:27;;;;;;;4.97;3.57;;;;;;;6.81;41.54;99856.31;8328162;28;20063;-75
2022/03/06 09:22:28;;;;;;;7.63;4.77;;;;;;;6.84;40.91;99864.16;8324446;28;20091;-75
2022/03/06 09:26:30;;;;;;;4.93;3.80;;;;;;;6.96;40.69;99851.44;8345031;28;20136;-75
2022/03/06 09:30:32;;;;;;;4.78;4.10;;;;;;;7.13;40.19;99850.00;8340269;28;20048;-74
2022/03/06 09:34:33;;;;;;;3.85;3.45;;;;;;;7.38;39.12;99855.59;8350450;28;20834;-74
2022/03/06 09:38:35;;;;;;;4.85;3.85;;;;;;;7.43;38.73;99852.22;8354627;28;20135;-74
2022/03/06 09:42:36;;;;;;;4.05;3.63;;;;;;;7.58;38.58;99849.00;8360978;28;20131;-74
2022/03/06 09:46:39;;;;;;;4.28;3.28;;;;;;;7.67;37.71;99843.97;8372678;28;20142;-75
2022/03/06 09:50:42;;;;;;;4.88;3.58;;;;;;;7.68;37.71;99844.81;8365718;28;20045;-76
2022/03/06 09:54:43;;;;;;;3.67;3.10;;;;;;;7.95;35.81;99850.41;8348452;28;20056;-76
2022/03/06 09:58:45;;;;;;;3.97;3.43;;;;;;;8.07;36.00;99852.25;8341454;28;20063;-75
2022/03/06 10:02:54;;;;;;;4.85;3.85;;;;;;;7.80;35.66;99850.19;8357064;28;20056;-76
2022/03/06 10:07:10;;;;;;;5.97;3.72;;;;;;;7.82;36.03;99848.47;8360021;28;20453;-76
2022/03/06 10:11:13;;;;;;;6.10;4.22;;;;;;;7.89;34.94;99847.72;8354424;28;20055;-76
2022/03/06 10:15:17;;;;;;;4.20;3.53;;;;;;;8.04;35.33;99847.06;8345291;28;20168;-75
2022/03/06 10:19:18;;;;;;;3.67;3.20;;;;;;;8.32;35.22;99840.50;8352848;28;20049;-75
2022/03/06 10:23:26;;;;;;;4.93;3.30;;;;;;;8.61;34.00;99853.81;8362233;28;20103;-76
2022/03/06 10:27:46;;;;;;;3.45;2.55;;;;;;;8.53;33.08;99842.50;8362990;28;20048;-76
2022/03/06 10:31:56;;;;;;;3.97;3.17;;;;;;;8.55;33.02;99845.97;8347465;28;20087;-76
2022/03/06 10:35:58;;;;;;;7.03;3.25;;;;;;;8.19;32.36;99850.72;8367424;28;20059;-76
2022/03/06 10:40:00;;;;;;;3.42;2.92;;;;;;;8.26;32.48;99843.00;8346596;28;20045;-76
2022/03/06 10:44:02;;;;;;;4.10;3.15;;;;;;;8.19;32.13;99858.47;8351608;28;20063;-76
2022/03/06 10:48:08;;;;;;;3.20;2.88;;;;;;;8.14;32.49;99854.97;8358537;28;20055;-76
2022/03/06 10:52:19;;;;;;;3.22;2.92;;;;;;;8.33;32.60;99850.00;8368442;28;20538;-76
2022/03/06 10:56:21;;;;;;;2.85;2.40;;;;;;;8.31;32.97;99847.41;8356080;28;20580;-75
2022/03/06 11:00:23;;;;;;;3.78;2.58;;;;;;;8.36;32.18;99844.91;8372515;28;20072;-75
2022/03/06 11:04:25;;;;;;;3.03;2.50;;;;;;;8.43;32.18;99846.69;8368838;28;20067;-75
2022/03/06 11:08:27;;;;;;;2.90;2.40;;;;;;;8.57;31.44;99855.50;8367191;28;20366;-75
2022/03/06 11:12:29;;;;;;;2.30;2.10;;;;;;;8.62;31.70;99858.16;8373429;28;20315;-75
2022/03/06 11:16:30;;;;;;;3.37;2.53;;;;;;;8.72;31.29;99852.22;8358118;28;20141;-75
2022/03/06 11:20:34;;;;;;;3.40;3.10;;;;;;;8.59;31.01;99858.09;8383198;28;20382;-75
2022/03/06 11:24:42;;;;;;;2.53;2.33;;;;;;;8.58;31.37;99838.25;8382067;28;20056;-75
2022/03/06 11:29:01;;;;;;;2.50;2.30;;;;;;;8.33;32.03;99844.84;8365431;28;20159;-75
2022/03/06 11:33:09;;;;;;;4.43;3.70;;;;;;;8.31;31.48;99833.59;8365415;28;20144;-75
2022/03/06 11:37:16;;;;;;;5.55;3.83;;;;;;;8.42;32.90;99829.44;8359699;28;20426;-75
2022/03/06 11:41:19;;;;;;;7.55;4.97;;;;;;;8.66;32.46;99834.91;8364742;28;20127;-75
2022/03/06 11:45:39;;;;;;;;;;;;;;;8.79;31.99;99820.34;8369207;28;20062;-75
2022/03/06 11:49:41;;;;;;;3.78;2.80;;;;;;;8.67;31.57;99818.50;8366951;28;20011;-76
2022/03/06 11:54:06;;;;;;;4.80;3.05;;;;;;;8.84;31.38;99823.84;8352988;28;20612;-76
2022/03/06 11:58:08;;;;;;;3.92;2.75;;;;;;;8.79;31.34;99813.44;8354180;28;20073;-76
2022/03/06 12:02:14;;;;;;;3.63;3.33;;;;;;;8.87;30.72;99815.25;8362942;28;20063;-76
2022/03/06 12:06:17;;;;;;;5.78;3.33;;;;;;;8.87;31.50;99805.75;8352159;28;20386;-76
2022/03/06 12:10:19;;;;;;;3.10;2.72;;;;;;;9.00;31.67;99807.59;8371472;28;20223;-76
2022/03/06 12:14:23;;;;;;;3.10;2.80;;;;;;;8.97;31.41;99804.97;8376246;28;20058;-76
2022/03/06 12:18:24;;;;;;;2.42;2.22;;;;;;;9.08;30.76;99798.16;8368171;28;20157;-77
2022/03/06 12:22:28;;;;;;;2.92;2.70;;;;;;;9.12;31.01;99788.69;8370638;28;20135;-77
2022/03/06 12:26:46;;;;;;;4.22;3.13;;;;;;;9.14;30.96;99791.28;8377578;28;20509;-77
2022/03/06 12:30:48;;;;;;;19.98;9.52;;;;;;;8.98;30.49;99787.72;8351946;28;20052;-77
2022/03/06 12:34:54;;;;;;;6.15;4.13;;;;;;;9.07;29.85;99791.25;8376096;28;20064;-78
2022/03/06 12:39:02;;;;;;;3.83;3.13;;;;;;;9.08;29.98;99782.63;8363166;28;20064;-71
2022/03/06 12:43:06;;;;;;;3.75;2.85;;;;;;;9.20;29.67;99775.81;8373855;28;20139;-72
2022/03/06 12:47:08;;;;;;;3.30;2.97;;;;;;;9.32;30.80;99770.69;8375317;28;20067;-72
2022/03/06 12:51:10;;;;;;;5.38;4.30;;;;;;;9.39;31.24;99769.91;8376580;28;20076;-72
2022/03/06 12:55:16;;;;;;;4.93;3.90;;;;;;;9.41;30.46;99763.00;8365693;28;20323;-71
2022/03/06 12:59:19;;;;;;;5.32;3.85;;;;;;;9.49;30.01;99753.53;8360048;28;20040;-72
2022/03/06 13:03:26;;;;;;;2.83;2.63;;;;;;;9.60;29.61;99753.59;8366062;28;20650;-72
2022/03/06 13:07:29;;;;;;;4.90;3.88;;;;;;;9.56;29.83;99747.53;8364634;28;20632;-72
2022/03/06 13:11:38;;;;;;;6.88;3.33;;;;;;;9.59;29.65;99749.28;8369895;28;20041;-72
2022/03/06 13:15:41;;;;;;;2.78;2.58;;;;;;;9.63;29.39;99746.69;8369973;28;20342;-72
2022/03/06 13:19:55;;;;;;;3.97;2.40;;;;;;;9.57;29.66;99744.09;8374168;28;20052;-72
2022/03/06 13:24:00;;;;;;;2.42;2.22;;;;;;;9.68;29.95;99744.13;8358314;28;20677;-71
2022/03/06 13:28:01;;;;;;;3.53;2.58;;;;;;;9.57;29.07;99741.50;8379101;28;20218;-71
2022/03/06 13:32:03;;;;;;;2.50;2.30;;;;;;;9.56;29.22;99742.34;8373092;28;20158;-71
2022/03/06 13:36:15;;;;;;;2.88;2.45;;;;;;;9.49;29.31;99737.09;8376144;28;20058;-71
2022/03/06 13:40:16;;;;;;;3.90;2.78;;;;;;;9.59;28.70;99733.72;8369135;28;20714;-70
2022/03/06 13:44:18;;;;;;;2.63;2.35;;;;;;;9.53;29.11;99725.91;8374031;28;20131;-70
2022/03/06 13:48:24;;;;;;;2.60;2.00;;;;;;;9.58;29.65;99717.28;8366351;28;20093;-71
2022/03/06 13:52:34;;;;;;;2.80;2.30;;;;;;;9.50;30.17;99731.06;8377866;28;20066;-71
2022/03/06 13:56:41;;;;;;;2.33;2.13;;;;;;;9.44;29.73;99729.31;8373172;28;20056;-70
2022/03/06 14:00:47;;;;;;;3.90;2.08;;;;;;;9.31;29.49;99719.72;8364904;28;20049;-70
2022/03/06 14:04:49;;;;;;;6.60;2.25;;;;;;;9.46;30.24;99722.41;8361337;28;20073;-71
2022/03/06 14:08:51;;;;;;;2.35;1.95;;;;;;;9.52;29.39;99725.06;8372631;28;20052;-71
2022/03/06 14:13:30;;;;;;;1.85;1.75;;;;;;;9.55;29.25;99716.41;8382995;28;20056;-71
2022/03/06 14:17:31;;;;;;;2.05;1.95;;;;;;;9.44;29.84;99728.44;8375920;28;20102;-70
2022/03/06 14:21:35;;;;;;;3.60;2.30;;;;;;;9.38;29.53;99724.97;8385280;28;20832;-76
2022/03/06 14:25:37;;;;;;;1.75;1.65;;;;;;;9.19;28.71;99730.91;8387182;28;20433;-78
2022/03/06 14:29:40;;;;;;;2.45;1.75;;;;;;;9.01;29.25;99721.28;8395046;28;20079;-73
2022/03/06 14:33:42;;;;;;;1.92;1.80;;;;;;;9.01;28.61;99725.59;8386021;28;20055;-75
2022/03/06 14:37:43;;;;;;;2.15;2.05;;;;;;;8.90;29.21;99719.47;8379680;28;20055;-76
2022/03/06 14:41:46;;;;;;;1.90;1.80;;;;;;;8.82;29.43;99723.72;8367413;28;20054;-75
2022/03/06 14:45:47;;;;;;;4.90;1.27;;;;;;;8.88;29.19;99722.03;8360287;28;20065;-76
2022/03/06 14:49:49;;;;;;;2.20;1.70;;;;;;;8.92;29.80;99712.56;8351138;28;20076;-75
2022/03/06 14:53:51;;;;;;;1.50;1.40;;;;;;;8.87;29.01;99709.94;8381000;28;20052;-76
2022/03/06 14:57:53;;;;;;;3.80;1.67;;;;;;;8.87;29.72;99716.84;8380205;28;20305;-76
2022/03/06 15:01:55;;;;;;;1.67;1.58;;;;;;;8.74;28.75;99713.28;8377021;28;20417;-79
2022/03/06 15:05:59;;;;;;;2.47;1.65;;;;;;;8.53;29.00;99716.56;8358704;28;20096;-78
2022/03/06 15:10:20;;;;;;;2.05;1.85;;;;;;;8.47;29.70;99737.22;8390386;28;20176;-77
2022/03/06 15:14:21;;;;;;;2.17;1.93;;;;;;;8.40;29.72;99736.28;8385218;28;20088;-77
2022/03/06 15:18:23;;;;;;;1.88;1.73;;;;;;;8.51;30.32;99732.94;8378720;28;20060;-81
2022/03/06 15:22:25;;;;;;;6.40;3.50;;;;;;;8.42;29.69;99744.03;8364942;28;20048;-80
2022/03/06 15:26:26;;;;;;;4.85;3.60;;;;;;;8.41;29.43;99739.72;8391124;28;20083;-80
2022/03/06 15:30:28;;;;;;;5.33;3.53;;;;;;;8.36;29.94;99731.94;8397368;28;20044;-80
2022/03/06 15:34:30;;;;;;;2.53;2.33;;;;;;;8.46;29.89;99727.72;8389859;28;20368;-80
2022/03/06 15:38:31;;;;;;;3.58;2.55;;;;;;;8.58;29.59;99732.13;8382904;28;20051;-80
2022/03/06 15:42:33;;;;;;;2.60;2.40;;;;;;;8.51;29.90;99738.97;8381131;28;20052;-81
2022/03/06 15:46:36;;;;;;;2.80;2.47;;;;;;;8.57;29.12;99733.84;8363015;28;20049;-80
2022/03/06 15:50:38;;;;;;;3.72;2.45;;;;;;;8.74;30.20;99739.19;8360299;28;20060;-81
2022/03/06 15:54:39;;;;;;;2.70;2.50;;;;;;;9.08;29.26;99722.19;8385683;28;20528;-80
2022/03/06 15:58:43;;;;;;;2.25;2.05;;;;;;;10.24;28.12;99725.34;8364236;28;20052;-80
2022/03/06 16:02:45;;;;;;;;;;;;;;;13.13;25.25;99726.09;8368901;28;20088;-80
2022/03/06 16:06:47;;;;;;;4.18;3.33;;;;;;;13.45;23.42;99722.31;8362893;28;19924;-81
2022/03/06 16:10:49;;;;;;;6.45;3.55;;;;;;;12.74;24.60;99715.97;8383540;28;20511;-80
2022/03/06 16:14:50;;;;;;;5.50;3.78;;;;;;;12.52;24.63;99716.16;8365100;28;20775;-80
2022/03/06 16:18:52;;;;;;;3.38;3.10;;;;;;;13.26;23.86;99706.84;8361229;28;20071;-80
2022/03/06 16:22:53;;;;;;;3.55;3.15;;;;;;;13.24;23.74;99703.41;8377753;28;20080;-80
2022/03/06 16:26:55;;;;;;;3.43;3.13;;;;;;;11.99;24.27;99712.13;8379602;28;20048;-80
2022/03/06 16:30:56;;;;;;;4.33;3.20;;;;;;;10.91;25.74;99709.81;8380109;28;20056;-80
2022/03/06 16:34:58;;;;;;;3.05;2.85;;;;;;;10.19;27.42;99707.13;8360554;28;20135;-80
2022/03/06 16:39:19;;;;;;;5.55;4.07;;;;;;;9.03;28.70;99708.34;8378897;28;20118;-81
2022/03/06 16:43:22;;;;;;;8.37;4.33;;;;;;;8.32;30.17;99716.34;8377259;28;20049;-80
2022/03/06 16:47:24;;;;;;;3.63;3.10;;;;;;;7.75;30.92;99722.59;8363658;28;20072;-81
2022/03/06 16:51:25;;;;;;;5.60;3.08;;;;;;;7.34;32.01;99720.34;8380071;28;20105;-78
2022/03/06 16:55:27;;;;;;;5.72;3.78;;;;;;;7.08;33.41;99722.56;8387643;28;20417;-78
2022/03/06 16:59:28;;;;;;;8.57;3.30;;;;;;;6.76;33.45;99723.75;8362190;28;20063;-80
2022/03/06 17:03:31;;;;;;;3.23;2.70;;;;;;;6.47;33.66;99726.75;8379443;28;20088;-81
2022/03/06 17:07:33;;;;;;;5.85;3.17;;;;;;;6.29;34.69;99729.88;8376744;28;20053;-81
2022/03/06 17:11:35;;;;;;;3.37;2.70;;;;;;;6.07;34.53;99728.56;8374083;28;20078;-81
2022/03/06 17:15:36;;;;;;;3.90;2.87;;;;;;;5.93;34.56;99737.78;8357463;28;20076;-81
2022/03/06 17:19:38;;;;;;;2.43;2.23;;;;;;;5.82;35.13;99733.19;8360402;28;20292;-81
2022/03/06 17:23:40;;;;;;;2.93;2.70;;;;;;;5.69;35.48;99745.81;8392918;28;20064;-81
2022/03/06 17:27:41;;;;;;;2.90;2.60;;;;;;;5.53;35.79;99758.34;8403621;28;20052;-81
2022/03/06 17:32:08;;;;;;;2.73;2.50;;;;;;;5.36;35.78;99751.13;8352671;28;20079;-81
2022/03/06 17:36:15;;;;;;;5.73;2.50;;;;;;;5.28;36.54;99756.94;8394042;28;20067;-81
2022/03/06 17:40:27;;;;;;;3.10;2.80;;;;;;;5.15;36.66;99772.09;8375099;28;20588;-81
2022/03/06 17:44:30;;;;;;;2.67;2.40;;;;;;;5.08;37.15;99774.50;8384180;28;20058;-79
2022/03/06 17:48:36;;;;;;;3.78;2.50;;;;;;;5.03;37.53;99784.69;8367401;28;20453;-81
2022/03/06 17:52:43;;;;;;;2.23;2.03;;;;;;;4.96;38.03;99784.50;8404131;28;20704;-80
2022/03/06 17:56:50;;;;;;;2.47;2.27;;;;;;;4.87;37.64;99789.44;8384406;28;20049;-80
2022/03/06 18:01:11;;;;;;;3.40;2.90;;;;;;;4.82;38.48;99794.44;8392470;28;20139;-81
2022/03/06 18:05:32;;;;;;;3.77;3.00;;;;;;;4.75;38.93;99790.84;8376349;28;20052;-81
2022/03/06 18:09:46;;;;;;;3.93;3.37;;;;;;;4.73;38.95;99800.25;8374912;28;20071;-81
2022/03/06 18:13:51;;;;;;;3.83;3.07;;;;;;;4.68;39.21;99794.13;8395751;28;20090;-81
2022/03/06 18:17:55;;;;;;;6.67;3.80;;;;;;;4.69;38.97;99802.72;8362047;28;20159;-81
2022/03/06 18:22:02;;;;;;;7.10;4.50;;;;;;;4.64;39.53;99799.13;8384668;28;20048;-81
2022/03/06 18:26:20;;;;;;;6.33;3.60;;;;;;;4.60;38.91;99802.44;8378749;28;20054;-82
2022/03/06 18:30:24;;;;;;;10.83;6.17;;;;;;;4.59;38.88;99806.72;8383461;28;20067;-81
2022/03/06 18:34:41;;;;;;;8.27;5.83;;;;;;;4.57;39.10;99803.25;8391791;28;20143;-81
2022/03/06 18:38:51;;;;;;;8.07;5.23;;;;;;;4.53;39.07;99810.00;8366145;28;20081;-81
2022/03/06 18:42:58;;;;;;;6.70;4.55;;;;;;;4.49;39.17;99821.06;8384870;28;20044;-80
2022/03/06 18:47:03;;;;;;;6.10;4.60;;;;;;;4.50;39.64;99830.50;8375360;28;20703;-80
2022/03/06 18:51:07;;;;;;;5.23;3.77;;;;;;;4.51;39.10;99821.97;8396866;28;20495;-80
2022/03/06 18:55:09;;;;;;;4.30;3.70;;;;;;;4.51;40.02;99826.25;8363735;28;20048;-80
2022/03/06 18:59:12;;;;;;;3.63;2.93;;;;;;;4.47;39.62;99826.97;8365485;28;20444;-80
2022/03/06 19:03:28;;;;;;;4.13;3.03;;;;;;;4.44;39.78;99824.31;8369409;28;20063;-79
2022/03/06 19:07:35;;;;;;;3.70;3.07;;;;;;;4.42;39.70;99824.28;8381556;28;20183;-80
2022/03/06 19:12:03;;;;;;;2.77;2.37;;;;;;;4.42;39.16;99824.28;8383339;28;20106;-80
2022/03/06 19:16:09;;;;;;;3.03;2.30;;;;;;;4.42;39.60;99833.69;8354331;28;20143;-80